Time;durP1;ratioP1;P1;durP2;ratioP2;P2;SDS_P1;SDS_P2;PMS_P1;PMS_P2;Temp;Humidity;BMP_temperature;BMP_pressure;BME280_temperature;BME280_humidity;BME280_pressure;Samples;Min_cycle;Max_cycle;Signal;HPM_P1;HPM_P2
2021/10/27 00:00:47;;;;;;;25.98;4.68;;;;;;;14.65;100.00;101898.88;5073638;28;20056;-32
2021/10/27 00:03:15;;;;;;;27.15;4.07;;;;;;;14.62;100.00;101907.91;5073991;28;20066;-35
2021/10/27 00:05:43;;;;;;;25.80;3.47;;;;;;;14.60;100.00;101915.78;5074064;28;20048;-33
2021/10/27 00:08:12;;;;;;;24.63;4.35;;;;;;;14.58;100.00;101895.63;5073613;28;20109;-35
2021/10/27 00:10:40;;;;;;;19.73;3.10;;;;;;;14.62;100.00;101898.63;5073898;28;20052;-32
2021/10/27 00:13:08;;;;;;;29.27;5.03;;;;;;;14.60;100.00;101909.31;5073925;28;20062;-31
2021/10/27 00:15:35;;;;;;;21.17;3.45;;;;;;;14.58;100.00;101908.81;5073203;28;20513;-32
2021/10/27 00:18:03;;;;;;;22.45;3.53;;;;;;;14.61;100.00;101911.00;5074209;28;20055;-35
2021/10/27 00:20:31;;;;;;;22.30;3.55;;;;;;;14.58;100.00;101911.63;5073341;28;20060;-37
2021/10/27 00:22:59;;;;;;;17.85;3.13;;;;;;;14.59;100.00;101916.13;5073575;28;20055;-34
2021/10/27 00:25:28;;;;;;;21.58;3.40;;;;;;;14.59;100.00;101916.91;5073629;28;20052;-36
2021/10/27 00:27:56;;;;;;;18.75;2.92;;;;;;;14.56;100.00;101927.94;5073823;28;20044;-39
2021/10/27 00:30:24;;;;;;;15.60;3.00;;;;;;;14.56;100.00;101917.53;5072644;28;20041;-31
2021/10/27 00:32:51;;;;;;;17.27;3.03;;;;;;;14.52;100.00;101936.13;5073960;28;20063;-36
2021/10/27 00:35:19;;;;;;;19.55;3.42;;;;;;;14.51;100.00;101925.19;5073353;28;20401;-37
2021/10/27 00:37:47;;;;;;;20.55;3.95;;;;;;;14.52;100.00;101947.38;5073028;28;20051;-35
2021/10/27 00:40:15;;;;;;;19.77;3.83;;;;;;;14.50;100.00;101934.75;5073439;28;20048;-33
2021/10/27 00:42:44;;;;;;;19.95;3.33;;;;;;;14.48;100.00;101946.28;5072588;28;20052;-31
2021/10/27 00:45:12;;;;;;;19.52;3.10;;;;;;;14.47;100.00;101942.63;5073344;28;20493;-33
2021/10/27 00:47:39;;;;;;;24.55;3.97;;;;;;;14.41;100.00;101942.97;5073336;28;20055;-35
2021/10/27 00:50:08;;;;;;;21.33;3.45;;;;;;;14.42;100.00;101939.88;5072733;28;20037;-32
2021/10/27 00:52:35;;;;;;;27.25;4.53;;;;;;;14.43;100.00;101935.94;5073250;28;20044;-36
2021/10/27 00:55:04;;;;;;;21.85;3.75;;;;;;;14.43;100.00;101937.91;5073090;28;20490;-32
2021/10/27 00:57:32;;;;;;;22.05;3.33;;;;;;;14.40;100.00;101932.84;5072388;28;20052;-36
2021/10/27 01:00:04;;;;;;;32.97;3.88;;;;;;;14.38;100.00;101937.97;5073514;28;20059;-35
2021/10/27 01:02:31;;;;;;;24.40;3.50;;;;;;;14.35;100.00;101935.75;5072900;28;20482;-37
2021/10/27 01:05:00;;;;;;;17.17;2.83;;;;;;;14.35;100.00;101935.75;5072548;28;20286;-35
2021/10/27 01:07:28;;;;;;;23.05;3.78;;;;;;;14.34;100.00;101937.72;5072794;28;20139;-32
2021/10/27 01:09:56;;;;;;;18.25;2.85;;;;;;;14.33;100.00;101932.41;5073117;28;20501;-35
2021/10/27 01:12:23;;;;;;;18.73;3.00;;;;;;;14.33;100.00;101929.59;5071989;28;20044;-34
2021/10/27 01:14:51;;;;;;;28.23;4.38;;;;;;;14.32;100.00;101930.72;5073075;28;20064;-34
2021/10/27 01:17:20;;;;;;;23.35;3.58;;;;;;;14.33;100.00;101941.66;5072567;28;20045;-35
2021/10/27 01:19:52;;;;;;;18.50;3.45;;;;;;;14.33;100.00;101946.44;5072138;28;20044;-35
2021/10/27 01:22:22;;;;;;;17.52;3.05;;;;;;;14.34;100.00;101945.31;5072293;28;20045;-36
2021/10/27 01:24:50;;;;;;;19.33;2.75;;;;;;;14.35;100.00;101956.25;5061284;28;20409;-33
2021/10/27 01:27:17;;;;;;;18.90;2.90;;;;;;;14.37;100.00;101948.34;5072452;28;20490;-33
2021/10/27 01:29:45;;;;;;;25.67;3.42;;;;;;;14.39;100.00;101951.66;5072546;28;20048;-36
2021/10/27 01:32:22;;;;;;;19.73;3.05;;;;;;;14.44;100.00;101954.47;5071710;28;20520;-36
2021/10/27 01:34:51;;;;;;;20.60;4.18;;;;;;;14.43;100.00;101958.41;5069457;28;20072;-33
2021/10/27 01:37:19;;;;;;;19.92;3.45;;;;;;;14.46;100.00;101957.81;5072369;28;20052;-35
2021/10/27 01:39:48;;;;;;;18.27;3.50;;;;;;;14.48;100.00;101940.66;5070799;28;20535;-39
2021/10/27 01:42:16;;;;;;;19.27;2.90;;;;;;;14.52;100.00;101949.34;5072167;28;20044;-34
2021/10/27 01:44:43;;;;;;;16.58;3.05;;;;;;;14.50;100.00;101935.59;5071994;28;20056;-34
2021/10/27 01:47:14;;;;;;;19.08;2.90;;;;;;;14.49;100.00;101939.53;5071573;28;20037;-29
2021/10/27 01:49:42;;;;;;;20.65;3.58;;;;;;;14.50;100.00;101929.97;5072171;28;20393;-38
2021/10/27 01:52:12;;;;;;;27.50;3.58;;;;;;;14.50;100.00;101920.72;5071963;28;20095;-34
2021/10/27 01:54:40;;;;;;;18.52;3.03;;;;;;;14.50;100.00;101918.72;5071703;28;20067;-32
2021/10/27 01:57:08;;;;;;;25.48;3.60;;;;;;;14.49;100.00;101917.06;5072267;28;20041;-34
2021/10/27 01:59:36;;;;;;;21.17;3.78;;;;;;;14.48;100.00;101910.59;5065569;28;20049;-35
2021/10/27 02:02:05;;;;;;;23.10;3.25;;;;;;;14.51;100.00;101913.97;5071379;28;20047;-32
2021/10/27 02:04:33;;;;;;;18.25;3.40;;;;;;;14.52;100.00;101910.00;5072245;28;20169;-35
2021/10/27 02:07:01;;;;;;;18.42;3.10;;;;;;;14.53;100.00;101914.50;5071614;28;20114;-33
2021/10/27 02:09:32;;;;;;;22.17;3.15;;;;;;;14.54;100.00;101921.78;5067590;28;20059;-33
2021/10/27 02:12:00;;;;;;;19.58;3.45;;;;;;;14.53;100.00;101909.72;5071993;28;20124;-33
2021/10/27 02:14:28;;;;;;;23.98;3.88;;;;;;;14.53;100.00;101918.13;5070689;28;20100;-36
2021/10/27 02:16:56;;;;;;;15.50;2.90;;;;;;;14.54;100.00;101914.19;5071718;28;20044;-32
2021/10/27 02:19:23;;;;;;;18.50;2.95;;;;;;;14.55;100.00;101915.03;5071263;28;20444;-33
2021/10/27 02:21:52;;;;;;;16.83;2.65;;;;;;;14.57;100.00;101913.59;5071214;28;20420;-37
2021/10/27 02:24:20;;;;;;;17.05;2.50;;;;;;;14.60;100.00;101921.41;5071317;28;20044;-33
2021/10/27 02:26:49;;;;;;;21.00;3.00;;;;;;;14.64;100.00;101918.84;5070032;28;20413;-35
2021/10/27 02:29:17;;;;;;;17.80;3.00;;;;;;;14.63;100.00;101906.75;5070567;28;20111;-35
2021/10/27 02:31:45;;;;;;;23.55;3.53;;;;;;;14.60;100.00;101912.97;5071714;28;20416;-38
2021/10/27 02:34:13;;;;;;;18.40;2.50;;;;;;;14.63;100.00;101919.97;5071213;28;20461;-34
2021/10/27 02:36:40;;;;;;;14.60;2.63;;;;;;;14.64;100.00;101910.41;5070005;28;20044;-35
2021/10/27 02:39:10;;;;;;;21.48;3.13;;;;;;;14.61;100.00;101917.47;5071179;28;20155;-38
2021/10/27 02:41:38;;;;;;;15.30;2.65;;;;;;;14.64;100.00;101919.66;5071034;28;20045;-33
2021/10/27 02:44:07;;;;;;;15.77;2.70;;;;;;;14.66;100.00;101928.63;5070679;28;20045;-38
2021/10/27 02:46:36;;;;;;;22.17;2.95;;;;;;;14.66;100.00;101928.63;5071192;28;20508;-33
2021/10/27 02:49:03;;;;;;;21.55;3.00;;;;;;;14.69;100.00;101928.03;5069867;28;20044;-35
2021/10/27 02:51:31;;;;;;;22.08;3.78;;;;;;;14.65;100.00;101921.34;5070410;28;20055;-38
2021/10/27 02:53:59;;;;;;;17.98;2.97;;;;;;;14.68;100.00;101911.47;5071021;28;20072;-38
2021/10/27 02:56:27;;;;;;;19.23;3.47;;;;;;;14.72;100.00;101916.19;5070594;28;20110;-33
2021/10/27 02:58:54;;;;;;;16.52;3.00;;;;;;;14.76;100.00;101916.44;5071198;28;20044;-34
2021/10/27 03:01:24;;;;;;;21.77;3.80;;;;;;;14.75;100.00;101920.38;5070918;28;20040;-32
2021/10/27 03:03:52;;;;;;;22.13;3.25;;;;;;;14.74;100.00;101927.97;5070467;28;20044;-35
2021/10/27 03:06:21;;;;;;;21.17;3.78;;;;;;;14.73;100.00;101915.06;5070841;28;20045;-36
2021/10/27 03:08:50;;;;;;;22.15;3.47;;;;;;;14.75;100.00;101914.75;5070789;28;20509;-32
2021/10/27 03:11:18;;;;;;;18.75;3.15;;;;;;;14.72;100.00;101927.44;5070047;28;20048;-33
2021/10/27 03:13:46;;;;;;;15.07;3.00;;;;;;;14.75;100.00;101924.03;5071165;28;20131;-31
2021/10/27 03:16:14;;;;;;;15.20;3.10;;;;;;;14.77;100.00;101921.75;5070654;28;20094;-31
2021/10/27 03:18:43;;;;;;;20.23;3.42;;;;;;;14.78;100.00;101915.00;5070495;28;20041;-33
2021/10/27 03:21:11;;;;;;;16.98;2.95;;;;;;;14.76;100.00;101919.25;5070599;28;20089;-31
2021/10/27 03:23:39;;;;;;;20.23;3.13;;;;;;;14.79;100.00;101922.25;5075313;28;20032;-36
2021/10/27 03:26:07;;;;;;;15.43;2.70;;;;;;;14.83;100.00;101914.06;5073971;28;20063;-31
2021/10/27 03:28:34;;;;;;;17.85;3.05;;;;;;;14.81;100.00;101911.56;5074989;28;20056;-36
2021/10/27 03:31:02;;;;;;;16.40;2.90;;;;;;;14.83;100.00;101917.72;5074796;28;20378;-33
2021/10/27 03:33:30;;;;;;;19.45;3.08;;;;;;;14.83;100.00;101912.09;5073636;28;20045;-36
2021/10/27 03:35:59;;;;;;;18.70;3.40;;;;;;;14.85;100.00;101916.59;5074801;28;20044;-37
2021/10/27 03:38:27;;;;;;;20.58;3.40;;;;;;;14.82;100.00;101921.66;5074333;28;20544;-38
2021/10/27 03:40:54;;;;;;;19.15;2.88;;;;;;;14.80;100.00;101921.13;5074599;28;21178;-32
2021/10/27 03:43:22;;;;;;;20.90;3.28;;;;;;;14.80;100.00;101917.47;5074396;28;20041;-31
2021/10/27 03:45:50;;;;;;;19.77;3.72;;;;;;;14.81;100.00;101920.00;5073723;28;20051;-38
2021/10/27 03:48:18;;;;;;;22.38;3.75;;;;;;;14.83;100.00;101914.06;5074238;28;20040;-36
2021/10/27 03:50:46;;;;;;;23.63;3.42;;;;;;;14.79;100.00;101922.25;5074410;28;20044;-33
2021/10/27 03:53:15;;;;;;;17.00;3.33;;;;;;;14.77;100.00;101916.13;5073786;28;20041;-35
2021/10/27 03:55:43;;;;;;;18.05;3.55;;;;;;;14.80;100.00;101923.09;5074338;28;20048;-34
2021/10/27 03:58:11;;;;;;;23.60;3.60;;;;;;;14.82;100.00;101906.78;5074296;28;20036;-34
2021/10/27 04:00:40;;;;;;;23.75;3.35;;;;;;;14.81;100.00;101920.00;5073558;28;20405;-35
2021/10/27 04:03:08;;;;;;;21.75;3.25;;;;;;;14.81;100.00;101913.53;5073189;28;20791;-36
2021/10/27 04:05:36;;;;;;;18.05;3.17;;;;;;;14.79;100.00;101916.66;5074448;28;20041;-40
2021/10/27 04:08:04;;;;;;;21.95;3.33;;;;;;;14.79;100.00;101921.44;5073280;28;20039;-31
2021/10/27 04:10:33;;;;;;;19.60;3.58;;;;;;;14.75;100.00;101921.22;5073954;28;20052;-35
2021/10/27 04:13:01;;;;;;;21.25;3.88;;;;;;;14.74;100.00;101921.53;5073853;28;20080;-36
2021/10/27 04:15:29;;;;;;;17.33;3.33;;;;;;;14.72;100.00;101919.00;5073158;28;20047;-33
2021/10/27 04:17:56;;;;;;;21.52;3.40;;;;;;;14.73;100.00;101919.84;5074024;28;20421;-35
2021/10/27 04:20:25;;;;;;;20.73;2.85;;;;;;;14.68;100.00;101923.56;5073841;28;20044;-38
2021/10/27 04:22:52;;;;;;;14.93;2.75;;;;;;;14.72;100.00;101920.97;5073128;28;20060;-35
2021/10/27 04:25:20;;;;;;;19.13;3.20;;;;;;;14.70;100.00;101926.91;5073815;28;20429;-32
2021/10/27 04:27:49;;;;;;;24.35;4.13;;;;;;;14.70;100.00;101932.53;5072922;28;20482;-31
2021/10/27 04:30:17;;;;;;;16.15;3.25;;;;;;;14.70;100.00;101915.66;5073743;28;20044;-34
2021/10/27 04:32:44;;;;;;;21.98;3.97;;;;;;;14.72;100.00;101923.78;5073019;28;20041;-32
2021/10/27 04:35:12;;;;;;;16.67;2.70;;;;;;;14.72;100.00;101926.59;5073012;28;20047;-35
2021/10/27 04:37:41;;;;;;;18.95;3.33;;;;;;;14.72;100.00;101913.38;5073532;28;20052;-38
2021/10/27 04:40:12;;;;;;;17.05;3.13;;;;;;;14.72;100.00;101927.44;5073260;28;20059;-36
2021/10/27 04:42:39;;;;;;;20.08;3.05;;;;;;;14.71;100.00;101924.94;5073144;28;20484;-36
2021/10/27 04:45:10;;;;;;;19.70;3.30;;;;;;;14.72;100.00;101926.59;5073381;28;20029;-33
2021/10/27 04:47:39;;;;;;;19.30;3.65;;;;;;;14.71;100.00;101922.97;5073381;28;20059;-35
2021/10/27 04:50:08;;;;;;;17.80;3.30;;;;;;;14.75;100.00;101928.81;5072716;28;20048;-35
2021/10/27 04:52:36;;;;;;;15.98;2.95;;;;;;;14.72;100.00;101927.44;5073021;28;20048;-34
2021/10/27 04:55:05;;;;;;;18.33;2.90;;;;;;;14.73;100.00;101931.94;5073385;28;20040;-36
2021/10/27 04:57:33;;;;;;;18.35;3.15;;;;;;;14.74;100.00;101930.78;5072876;28;20128;-36
2021/10/27 05:00:01;;;;;;;19.17;2.72;;;;;;;14.73;100.00;101934.72;5071990;28;20041;-37
2021/10/27 05:02:30;;;;;;;19.48;2.85;;;;;;;14.76;100.00;101931.31;5073115;28;20044;-31
2021/10/27 05:04:57;;;;;;;25.80;3.38;;;;;;;14.74;100.00;101935.56;5071966;28;20128;-32
2021/10/27 05:07:25;;;;;;;26.05;4.45;;;;;;;14.77;100.00;101930.19;5073396;28;20051;-35
2021/10/27 05:09:56;;;;;;;20.23;3.60;;;;;;;14.78;100.00;101931.88;5072140;28;20524;-32
2021/10/27 05:12:24;;;;;;;21.88;3.45;;;;;;;14.78;100.00;101933.84;5073258;28;20059;-31
2021/10/27 05:14:52;;;;;;;19.92;3.38;;;;;;;14.77;100.00;101930.19;5072690;28;20052;-34
2021/10/27 05:17:20;;;;;;;16.65;2.92;;;;;;;14.77;100.00;101935.81;5072196;28;20048;-38
2021/10/27 05:19:49;;;;;;;13.70;3.30;;;;;;;14.79;100.00;101929.84;5072234;28;20041;-32
2021/10/27 05:22:18;;;;;;;20.67;3.45;;;;;;;14.80;100.00;101935.19;5072709;28;20494;-35
2021/10/27 05:24:46;;;;;;;19.98;3.13;;;;;;;14.79;100.00;101935.47;5071784;28;20395;-35
2021/10/27 05:27:14;;;;;;;19.38;3.17;;;;;;;14.77;100.00;101926.53;5072518;28;20130;-32
2021/10/27 05:29:41;;;;;;;21.50;3.55;;;;;;;14.84;100.00;101929.81;5072202;28;20044;-40
2021/10/27 05:32:09;;;;;;;18.63;2.65;;;;;;;14.85;100.00;101939.91;5071510;28;20040;-35
2021/10/27 05:34:39;;;;;;;15.23;3.15;;;;;;;14.85;100.00;101930.63;5072157;28;20105;-38
2021/10/27 05:37:08;;;;;;;19.27;3.22;;;;;;;14.88;100.00;101941.28;5072486;28;20056;-35
2021/10/27 05:39:36;;;;;;;22.52;4.07;;;;;;;14.87;100.00;101929.19;5071738;28;20044;-35
2021/10/27 05:42:07;;;;;;;21.02;3.38;;;;;;;14.87;100.00;101931.19;5072195;28;20055;-34
2021/10/27 05:44:35;;;;;;;20.25;3.22;;;;;;;14.88;100.00;101932.84;5071230;28;20040;-34
2021/10/27 05:47:02;;;;;;;17.05;3.15;;;;;;;14.85;100.00;101936.25;5071505;28;20052;-36
2021/10/27 05:49:35;;;;;;;16.58;3.13;;;;;;;14.90;100.00;101945.47;5072041;28;20048;-33
2021/10/27 05:54:59;;;;;;;15.20;2.75;;;;;;;14.86;100.00;101937.94;5071912;28;20090;-35
2021/10/27 05:55:02;;;;;;;16.25;3.08;;;;;;;14.89;100.00;101940.97;5072115;28;20036;-37
2021/10/27 05:57:31;;;;;;;15.45;2.58;;;;;;;14.89;100.00;101955.03;5065275;28;20044;-31
2021/10/27 05:59:58;;;;;;;21.85;3.50;;;;;;;14.88;100.00;101950.53;5071507;28;20052;-30
2021/10/27 06:02:26;;;;;;;19.10;2.58;;;;;;;14.89;100.00;101963.47;5071747;28;20237;-34
2021/10/27 06:04:54;;;;;;;18.83;3.63;;;;;;;14.86;100.00;101947.19;5071799;28;20485;-38
2021/10/27 06:07:22;;;;;;;17.42;3.00;;;;;;;14.87;100.00;101946.06;5071204;28;20043;-35
2021/10/27 06:09:50;;;;;;;14.70;3.05;;;;;;;14.88;100.00;101939.31;5071930;28;20071;-31
2021/10/27 06:12:19;;;;;;;13.85;2.50;;;;;;;14.92;100.00;101945.16;5071159;28;20054;-37
2021/10/27 06:14:47;;;;;;;18.63;3.17;;;;;;;14.90;100.00;101939.84;5071222;28;20053;-35
2021/10/27 06:17:15;;;;;;;21.98;3.25;;;;;;;14.89;100.00;101934.53;5071204;28;20040;-35
2021/10/27 06:19:43;;;;;;;14.85;3.00;;;;;;;14.88;100.00;101918.78;5071584;28;20497;-38
2021/10/27 06:22:11;;;;;;;15.98;2.75;;;;;;;14.88;100.00;101930.03;5070184;28;20041;-38
2021/10/27 06:24:39;;;;;;;14.68;2.50;;;;;;;14.88;100.00;101924.41;5071201;28;20419;-38
2021/10/27 06:27:07;;;;;;;14.63;2.42;;;;;;;14.88;100.00;101930.88;5071050;28;20056;-31
2021/10/27 06:29:41;;;;;;;15.18;2.63;;;;;;;14.86;100.00;101930.34;5067766;28;20044;-36
2021/10/27 06:32:15;;;;;;;14.30;2.65;;;;;;;14.87;100.00;101937.63;5071121;28;20052;-37
2021/10/27 06:34:48;;;;;;;21.70;2.78;;;;;;;14.81;100.00;101931.22;5070306;28;20059;-35
2021/10/27 06:46:26;;;;;;;19.33;2.88;;;;;;;14.80;100.00;101959.63;5061878;28;20041;-33
2021/10/27 06:48:54;;;;;;;23.83;2.88;;;;;;;14.78;100.00;101951.53;5067879;28;20041;-40
2021/10/27 06:51:22;;;;;;;17.60;3.03;;;;;;;14.80;100.00;101940.81;5070812;28;20044;-37
2021/10/27 06:53:50;;;;;;;17.02;2.65;;;;;;;14.82;100.00;101929.25;5071022;28;20124;-34
2021/10/27 06:56:21;;;;;;;17.42;3.00;;;;;;;14.82;100.00;101943.31;5070457;28;20052;-41
2021/10/27 06:58:53;;;;;;;19.67;3.45;;;;;;;14.81;100.00;101964.97;5070719;28;20044;-36
2021/10/27 07:01:26;;;;;;;;;;;;;;;14.82;100.00;101958.19;5071680;28;20055;-36
2021/10/27 07:07:19;;;;;;;11.73;2.00;;;;;;;14.87;100.00;101974.16;5071021;28;20047;-35
2021/10/27 07:15:21;;;;;;;16.77;2.75;;;;;;;14.96;100.00;101982.78;5066216;28;20402;-35
2021/10/27 07:17:52;;;;;;;18.98;3.33;;;;;;;14.99;100.00;101994.22;5070239;28;20036;-36
2021/10/27 07:20:21;;;;;;;21.10;4.53;;;;;;;15.01;100.00;102002.38;5064770;28;20445;-35
2021/10/27 07:22:49;;;;;;;26.15;5.00;;;;;;;14.98;100.00;102003.00;5070390;28;20127;-33
2021/10/27 07:25:17;;;;;;;25.60;4.55;;;;;;;14.94;100.00;101996.28;5070253;28;20523;-31
2021/10/27 07:27:46;;;;;;;24.40;4.03;;;;;;;14.92;100.00;102001.38;5070677;28;20055;-33
2021/10/27 07:30:14;;;;;;;22.75;5.55;;;;;;;14.90;100.00;102003.66;5070715;28;20048;-36
2021/10/27 07:32:42;;;;;;;34.60;4.72;;;;;;;14.86;100.00;102011.00;5070185;28;20413;-31
2021/10/27 07:35:24;;;;;;;22.70;4.28;;;;;;;14.83;100.00;102007.66;5069287;28;20048;-36
2021/10/27 07:40:41;;;;;;;18.33;3.60;;;;;;;14.80;100.00;102015.84;5070648;28;20044;-35
2021/10/27 07:43:13;;;;;;;23.30;4.68;;;;;;;14.81;100.00;102015.53;5070573;28;20059;-32
2021/10/27 07:45:41;;;;;;;25.17;4.45;;;;;;;14.79;100.00;102005.72;5066343;28;20496;-32
2021/10/27 07:48:10;;;;;;;25.08;5.72;;;;;;;14.78;100.00;102009.72;5070366;28;20064;-34
2021/10/27 07:50:39;;;;;;;21.10;3.83;;;;;;;14.80;100.00;102013.88;5069939;28;20402;-36
2021/10/27 07:53:09;;;;;;;19.13;3.95;;;;;;;14.81;100.00;102004.28;5070053;28;20068;-37
2021/10/27 07:55:39;;;;;;;17.23;2.88;;;;;;;14.82;100.00;102005.13;5070254;28;20049;-35
2021/10/27 07:58:07;;;;;;;12.00;2.00;;;;;;;14.85;100.00;102004.53;5070474;28;20125;-39
2021/10/27 08:00:34;;;;;;;11.93;1.92;;;;;;;14.90;100.00;102007.28;5069787;28;20056;-34
2021/10/27 08:03:03;;;;;;;20.40;3.03;;;;;;;14.97;100.00;102012.56;5070596;28;20044;-35
2021/10/27 08:05:34;;;;;;;13.43;2.50;;;;;;;14.99;100.00;102007.44;5069949;28;20140;-34
2021/10/27 08:08:03;;;;;;;23.08;3.45;;;;;;;15.04;100.00;102019.47;5071550;28;20048;-32
2021/10/27 08:10:32;;;;;;;20.10;3.53;;;;;;;15.07;100.00;102024.50;5073444;28;20516;-38
2021/10/27 08:13:00;;;;;;;24.05;4.50;;;;;;;15.07;100.00;102023.66;5069801;28;20072;-34
2021/10/27 08:15:29;;;;;;;21.92;4.82;;;;;;;15.02;100.00;102015.28;5073819;28;20805;-37
2021/10/27 08:17:58;;;;;;;25.63;5.25;;;;;;;15.01;100.00;102024.84;5073814;28;20056;-37
2021/10/27 08:20:29;;;;;;;20.30;4.35;;;;;;;14.99;100.00;102030.78;5073027;28;20048;-34
2021/10/27 08:22:59;;;;;;;21.15;4.57;;;;;;;14.99;100.00;102035.56;5073304;28;20048;-39
2021/10/27 08:25:31;;;;;;;19.38;4.93;;;;;;;14.99;100.00;102032.75;5073767;28;20413;-35
2021/10/27 08:28:02;;;;;;;19.38;4.80;;;;;;;15.00;100.00;102026.81;5073237;28;20049;-34
2021/10/27 08:30:37;;;;;;;25.02;5.97;;;;;;;14.99;100.00;102055.22;5073583;28;20493;-39
2021/10/27 08:33:19;;;;;;;23.55;5.07;;;;;;;14.98;100.00;102054.44;5073866;28;20056;-34
2021/10/27 08:35:47;;;;;;;19.98;4.85;;;;;;;14.95;100.00;102049.41;5072670;28;20067;-40
2021/10/27 08:38:15;;;;;;;27.77;4.43;;;;;;;14.94;100.00;102058.97;5073900;28;20050;-32
2021/10/27 08:40:45;;;;;;;22.88;4.93;;;;;;;14.92;100.00;102032.28;5073313;28;20058;-32
2021/10/27 08:43:14;;;;;;;23.50;4.75;;;;;;;14.93;100.00;102062.06;5072659;28;20433;-39
2021/10/27 08:45:42;;;;;;;16.42;4.40;;;;;;;14.96;100.00;102044.63;5073074;28;20142;-40
2021/10/27 08:48:10;;;;;;;22.48;4.53;;;;;;;14.93;100.00;102060.09;5072438;28;20135;-39
2021/10/27 08:50:39;;;;;;;21.27;4.78;;;;;;;14.89;100.00;102049.75;5073381;28;20045;-35
2021/10/27 08:53:14;;;;;;;22.15;4.45;;;;;;;14.85;100.00;102057.09;5073082;28;20056;-34
2021/10/27 08:55:48;;;;;;;28.15;4.90;;;;;;;14.83;100.00;102057.41;5072777;28;20053;-38
2021/10/27 08:58:22;;;;;;;21.10;4.07;;;;;;;14.85;100.00;102066.38;5073077;28;20136;-40
2021/10/27 09:00:58;;;;;;;23.00;4.22;;;;;;;14.88;100.00;102060.16;5073227;28;20056;-37
2021/10/27 09:03:37;;;;;;;24.77;6.05;;;;;;;14.90;100.00;102068.28;5072559;28;20056;-40
2021/10/27 09:06:19;;;;;;;19.13;4.20;;;;;;;14.91;100.00;102053.94;5072828;28;20044;-36
2021/10/27 09:15:07;;;;;;;19.30;4.15;;;;;;;14.97;100.00;102046.28;5072634;28;20055;-34
2021/10/27 09:34:26;;;;;;;21.23;4.05;;;;;;;15.26;100.00;102055.44;5071576;28;20046;-34
2021/10/27 09:42:51;;;;;;;19.35;4.00;;;;;;;15.52;100.00;102045.53;5072085;28;20044;-33
2021/10/27 10:05:27;;;;;;;17.42;3.17;;;;;;;16.31;100.00;102058.94;5068428;28;20378;-35
2021/10/27 10:07:55;;;;;;;13.70;3.13;;;;;;;16.35;100.00;102071.25;5071796;28;20048;-37
2021/10/27 10:10:23;;;;;;;21.35;4.40;;;;;;;16.46;100.00;102067.09;5071329;28;20049;-38
2021/10/27 10:12:53;;;;;;;15.77;3.67;;;;;;;16.48;100.00;102050.72;5071004;28;20102;-38
2021/10/27 10:15:26;;;;;;;19.38;3.70;;;;;;;16.46;100.00;102072.72;5070019;28;20477;-34
2021/10/27 10:17:57;;;;;;;18.85;3.50;;;;;;;16.47;100.00;102065.97;5071681;28;20485;-37
2021/10/27 10:20:25;;;;;;;18.98;3.75;;;;;;;16.46;100.00;102067.94;5070650;28;20374;-33
2021/10/27 10:23:20;;;;;;;22.83;3.92;;;;;;;16.39;100.00;102072.28;5071704;28;20052;-38
2021/10/27 10:25:53;;;;;;;16.77;3.53;;;;;;;16.34;100.00;102075.22;5070694;28;20067;-36
2021/10/27 10:28:25;;;;;;;19.55;3.55;;;;;;;16.27;100.00;102080.41;5070979;28;20052;-35
2021/10/27 10:30:55;;;;;;;23.35;4.05;;;;;;;16.19;100.00;102085.59;5070545;28;20044;-32
2021/10/27 10:33:40;;;;;;;15.68;3.05;;;;;;;16.13;100.00;102077.53;5071450;28;20056;-32
2021/10/27 10:36:12;;;;;;;17.77;4.05;;;;;;;16.08;100.00;102077.63;5071023;28;20036;-32
2021/10/27 10:41:49;;;;;;;16.67;3.45;;;;;;;16.03;100.00;102086.97;5059515;28;20098;-30
2021/10/27 11:15:14;;;;;;;16.42;3.58;;;;;;;15.71;100.00;102075.69;5063149;28;20048;-37
2021/10/27 11:23:21;;;;;;;15.33;3.53;;;;;;;15.34;100.00;102063.22;5068610;28;20409;-35
2021/10/27 11:26:09;;;;;;;14.10;2.83;;;;;;;15.36;100.00;102066.59;5070776;28;20048;-37
2021/10/27 11:37:23;;;;;;;16.02;3.10;;;;;;;15.39;100.00;102054.69;5070058;28;20041;-36
2021/10/27 11:39:52;;;;;;;15.60;3.13;;;;;;;15.40;100.00;102055.53;5070535;28;20427;-33
2021/10/27 11:42:40;;;;;;;16.42;3.53;;;;;;;15.41;100.00;102051.59;5070985;28;20051;-35
2021/10/27 11:45:21;;;;;;;17.23;3.17;;;;;;;15.39;100.00;102054.69;5070875;28;20036;-40
2021/10/27 11:47:52;;;;;;;13.23;2.87;;;;;;;15.41;100.00;102045.97;5073845;28;20330;-37
2021/10/27 11:50:21;;;;;;;20.52;4.07;;;;;;;15.43;100.00;102038.91;5074350;28;20045;-34
2021/10/27 11:52:53;;;;;;;13.32;3.13;;;;;;;15.46;100.00;102037.47;5073631;28;20083;-34
2021/10/27 11:55:22;;;;;;;18.23;4.20;;;;;;;15.48;100.00;102038.84;5074012;28;20049;-34
2021/10/27 11:57:54;;;;;;;16.17;3.67;;;;;;;15.49;100.00;102034.88;5073647;28;20052;-37
2021/10/27 12:00:26;;;;;;;16.13;3.15;;;;;;;15.51;100.00;102043.00;5074276;28;20048;-36
2021/10/27 12:02:58;;;;;;;;;;;;;;;15.45;100.00;102047.03;5073126;28;20420;-37
2021/10/27 12:05:28;;;;;;;18.75;3.08;;;;;;;15.44;100.00;102039.72;5073412;28;20010;-33
2021/10/27 12:08:48;;;;;;;12.40;2.88;;;;;;;15.48;100.00;102030.38;5072322;28;20401;-36
2021/10/27 12:11:30;;;;;;;19.40;3.25;;;;;;;15.45;100.00;102041.41;5073222;28;20417;-34
2021/10/27 12:14:14;;;;;;;14.23;3.35;;;;;;;15.45;100.00;102039.44;5073364;28;20056;-35
2021/10/27 12:16:59;;;;;;;21.17;3.47;;;;;;;15.39;100.00;102043.44;5064459;28;20044;-39
2021/10/27 12:19:30;;;;;;;15.63;3.08;;;;;;;15.29;100.00;102039.97;5073088;28;20445;-38
2021/10/27 12:22:01;;;;;;;19.08;3.17;;;;;;;15.27;100.00;102040.25;5074054;28;20048;-34
2021/10/27 12:24:32;;;;;;;21.52;3.47;;;;;;;15.28;100.00;102035.47;5073217;28;20055;-34
2021/10/27 12:27:04;;;;;;;17.97;3.63;;;;;;;15.22;100.00;102031.03;5073249;28;20498;-37
2021/10/27 12:29:34;;;;;;;14.73;3.03;;;;;;;15.15;100.00;102025.81;5073657;28;20769;-40
2021/10/27 12:32:04;;;;;;;15.82;3.33;;;;;;;15.12;100.00;102015.16;5073747;28;20409;-33
2021/10/27 12:34:34;;;;;;;14.88;2.92;;;;;;;15.07;100.00;102015.22;5072908;28;20056;-32
2021/10/27 12:37:18;;;;;;;12.77;3.22;;;;;;;15.02;100.00;102024.56;5073586;28;20044;-34
2021/10/27 12:39:47;;;;;;;16.05;3.92;;;;;;;14.96;100.00;102022.97;5073499;28;20052;-36
2021/10/27 12:42:15;;;;;;;18.38;3.45;;;;;;;14.99;100.00;102004.63;5073149;28;20050;-40
2021/10/27 12:44:49;;;;;;;11.57;2.95;;;;;;;14.98;100.00;102014.22;5073257;28;20056;-34
2021/10/27 12:47:22;;;;;;;19.02;3.47;;;;;;;14.94;100.00;102013.16;5072993;28;20391;-42
2021/10/27 12:50:04;;;;;;;16.02;3.17;;;;;;;14.91;100.00;102006.16;5073009;28;20058;-40
2021/10/27 12:52:35;;;;;;;14.83;3.17;;;;;;;14.92;100.00;101995.75;5071818;28;20045;-34
2021/10/27 12:55:26;;;;;;;17.13;4.03;;;;;;;14.96;100.00;101994.03;5072205;28;20283;-34
2021/10/27 12:58:14;;;;;;;15.38;3.58;;;;;;;14.99;100.00;101993.41;5073286;28;20493;-38
2021/10/27 13:00:53;;;;;;;13.63;3.00;;;;;;;14.98;100.00;101989.78;5071375;28;20045;-37
2021/10/27 13:03:46;;;;;;;16.95;3.70;;;;;;;14.99;100.00;101977.38;5071959;28;20044;-38
2021/10/27 13:06:21;;;;;;;18.88;3.28;;;;;;;14.92;100.00;101990.13;5071290;28;20060;-40
2021/10/27 13:08:59;;;;;;;17.95;4.20;;;;;;;14.84;100.00;101980.38;5070221;28;20413;-36
2021/10/27 13:11:40;;;;;;;18.55;3.80;;;;;;;14.83;100.00;101990.78;5072081;28;20040;-32
2021/10/27 13:14:30;;;;;;;17.90;3.40;;;;;;;14.79;100.00;101986.91;5072053;28;20102;-34
2021/10/27 13:20:03;;;;;;;;;;;;;;;14.73;100.00;101976.88;5055297;28;20332;-33
2021/10/27 13:22:40;;;;;;;15.70;3.45;;;;;;;14.75;100.00;101987.81;5066720;28;20377;-33
2021/10/27 13:31:00;;;;;;;13.88;3.53;;;;;;;14.78;100.00;101982.44;5028800;28;20045;-33